sensor_id;sensor_type;location;lat;lon;timestamp;P1;durP1;ratioP1;P2;durP2;ratioP2
63189;SDS011;49286;44.460;26.114;2022-10-17T00:00:58;28.63;;;19.35;;
63189;SDS011;49286;44.460;26.114;2022-10-17T00:03:23;28.98;;;17.60;;
63189;SDS011;49286;44.460;26.114;2022-10-17T00:05:49;26.83;;;19.42;;
63189;SDS011;49286;44.460;26.114;2022-10-17T00:08:15;43.05;;;20.17;;
63189;SDS011;49286;44.460;26.114;2022-10-17T00:10:41;31.58;;;20.48;;
63189;SDS011;49286;44.460;26.114;2022-10-17T00:13:07;26.08;;;17.85;;
63189;SDS011;49286;44.460;26.114;2022-10-17T00:15:33;19.00;;;12.30;;
63189;SDS011;49286;44.460;26.114;2022-10-17T00:17:59;22.10;;;13.65;;
63189;SDS011;49286;44.460;26.114;2022-10-17T00:20:25;22.90;;;12.50;;
63189;SDS011;49286;44.460;26.114;2022-10-17T00:22:51;20.80;;;13.20;;
63189;SDS011;49286;44.460;26.114;2022-10-17T00:25:16;23.08;;;14.85;;
63189;SDS011;49286;44.460;26.114;2022-10-17T00:27:43;26.40;;;18.45;;
63189;SDS011;49286;44.460;26.114;2022-10-17T00:30:11;26.10;;;19.63;;
63189;SDS011;49286;44.460;26.114;2022-10-17T00:32:39;29.30;;;18.73;;
63189;SDS011;49286;44.460;26.114;2022-10-17T00:35:05;25.42;;;17.45;;
63189;SDS011;49286;44.460;26.114;2022-10-17T00:37:31;24.02;;;14.40;;
63189;SDS011;49286;44.460;26.114;2022-10-17T00:39:57;21.05;;;15.60;;
63189;SDS011;49286;44.460;26.114;2022-10-17T00:42:23;24.83;;;18.15;;
63189;SDS011;49286;44.460;26.114;2022-10-17T00:47:16;29.38;;;19.27;;
63189;SDS011;49286;44.460;26.114;2022-10-17T00:49:44;21.58;;;15.55;;
63189;SDS011;49286;44.460;26.114;2022-10-17T00:52:12;31.23;;;18.30;;
63189;SDS011;49286;44.460;26.114;2022-10-17T00:54:43;20.35;;;14.77;;
63189;SDS011;49286;44.460;26.114;2022-10-17T00:57:12;26.45;;;13.75;;
63189;SDS011;49286;44.460;26.114;2022-10-17T00:59:39;19.05;;;14.13;;
63189;SDS011;49286;44.460;26.114;2022-10-17T01:02:08;22.98;;;16.77;;
63189;SDS011;49286;44.460;26.114;2022-10-17T01:04:39;22.90;;;13.82;;
63189;SDS011;49286;44.460;26.114;2022-10-17T01:07:07;18.08;;;12.48;;
63189;SDS011;49286;44.460;26.114;2022-10-17T01:09:33;18.70;;;12.43;;
63189;SDS011;49286;44.460;26.114;2022-10-17T01:17:54;15.20;;;9.98;;
63189;SDS011;49286;44.460;26.114;2022-10-17T01:34:10;19.13;;;14.65;;
63189;SDS011;49286;44.460;26.114;2022-10-17T01:39:17;21.17;;;12.18;;
63189;SDS011;49286;44.460;26.114;2022-10-17T01:45:11;21.05;;;13.73;;
63189;SDS011;49286;44.460;26.114;2022-10-17T01:47:42;24.17;;;15.32;;
63189;SDS011;49286;44.460;26.114;2022-10-17T01:50:13;16.80;;;11.05;;
63189;SDS011;49286;44.460;26.114;2022-10-17T01:52:50;16.52;;;10.95;;
63189;SDS011;49286;44.460;26.114;2022-10-17T01:55:20;15.32;;;11.07;;
63189;SDS011;49286;44.460;26.114;2022-10-17T01:57:50;16.73;;;11.15;;
63189;SDS011;49286;44.460;26.114;2022-10-17T02:00:23;21.00;;;13.50;;
63189;SDS011;49286;44.460;26.114;2022-10-17T02:02:53;32.88;;;11.45;;
63189;SDS011;49286;44.460;26.114;2022-10-17T02:05:23;20.58;;;11.90;;
63189;SDS011;49286;44.460;26.114;2022-10-17T02:07:53;26.17;;;12.43;;
63189;SDS011;49286;44.460;26.114;2022-10-17T02:10:21;21.38;;;12.10;;
63189;SDS011;49286;44.460;26.114;2022-10-17T02:12:59;18.50;;;12.13;;
63189;SDS011;49286;44.460;26.114;2022-10-17T02:32:14;16.52;;;11.27;;
63189;SDS011;49286;44.460;26.114;2022-10-17T02:34:49;16.23;;;13.52;;
63189;SDS011;49286;44.460;26.114;2022-10-17T02:37:19;19.33;;;12.63;;
63189;SDS011;49286;44.460;26.114;2022-10-17T02:39:49;21.20;;;12.35;;
63189;SDS011;49286;44.460;26.114;2022-10-17T02:42:15;18.58;;;14.25;;
63189;SDS011;49286;44.460;26.114;2022-10-17T02:44:43;16.30;;;10.70;;
63189;SDS011;49286;44.460;26.114;2022-10-17T02:47:18;17.35;;;11.70;;
63189;SDS011;49286;44.460;26.114;2022-10-17T02:49:49;25.25;;;14.10;;
63189;SDS011;49286;44.460;26.114;2022-10-17T02:54:58;21.30;;;12.65;;
63189;SDS011;49286;44.460;26.114;2022-10-17T02:57:32;22.50;;;13.85;;
63189;SDS011;49286;44.460;26.114;2022-10-17T03:00:10;20.65;;;13.40;;
63189;SDS011;49286;44.460;26.114;2022-10-17T03:02:42;22.92;;;14.40;;
63189;SDS011;49286;44.460;26.114;2022-10-17T03:05:15;22.65;;;13.20;;
63189;SDS011;49286;44.460;26.114;2022-10-17T03:07:49;47.05;;;15.63;;
63189;SDS011;49286;44.460;26.114;2022-10-17T03:10:15;22.15;;;13.48;;
63189;SDS011;49286;44.460;26.114;2022-10-17T03:12:41;28.55;;;14.93;;
63189;SDS011;49286;44.460;26.114;2022-10-17T03:15:06;21.73;;;14.43;;
63189;SDS011;49286;44.460;26.114;2022-10-17T03:17:32;23.05;;;15.45;;
63189;SDS011;49286;44.460;26.114;2022-10-17T03:19:59;22.05;;;13.93;;
63189;SDS011;49286;44.460;26.114;2022-10-17T03:22:24;19.85;;;13.02;;
63189;SDS011;49286;44.460;26.114;2022-10-17T03:24:50;27.73;;;16.55;;
63189;SDS011;49286;44.460;26.114;2022-10-17T03:27:15;27.48;;;17.15;;
63189;SDS011;49286;44.460;26.114;2022-10-17T03:29:40;20.05;;;13.30;;
63189;SDS011;49286;44.460;26.114;2022-10-17T03:32:06;21.00;;;14.35;;
63189;SDS011;49286;44.460;26.114;2022-10-17T03:34:32;25.25;;;16.38;;
63189;SDS011;49286;44.460;26.114;2022-10-17T03:36:57;21.65;;;13.40;;
63189;SDS011;49286;44.460;26.114;2022-10-17T03:39:23;29.70;;;15.45;;
63189;SDS011;49286;44.460;26.114;2022-10-17T03:41:48;22.23;;;15.00;;
63189;SDS011;49286;44.460;26.114;2022-10-17T03:44:14;29.15;;;15.23;;
63189;SDS011;49286;44.460;26.114;2022-10-17T03:46:39;19.65;;;15.40;;
63189;SDS011;49286;44.460;26.114;2022-10-17T03:49:05;22.00;;;16.15;;
63189;SDS011;49286;44.460;26.114;2022-10-17T03:51:31;23.92;;;14.50;;
63189;SDS011;49286;44.460;26.114;2022-10-17T03:53:58;26.20;;;16.08;;
63189;SDS011;49286;44.460;26.114;2022-10-17T03:56:24;21.05;;;15.45;;
63189;SDS011;49286;44.460;26.114;2022-10-17T03:58:50;22.70;;;16.08;;
63189;SDS011;49286;44.460;26.114;2022-10-17T04:01:16;24.77;;;16.45;;
63189;SDS011;49286;44.460;26.114;2022-10-17T04:03:42;21.88;;;15.48;;
63189;SDS011;49286;44.460;26.114;2022-10-17T04:06:10;22.42;;;16.15;;
63189;SDS011;49286;44.460;26.114;2022-10-17T04:08:36;21.60;;;16.45;;
63189;SDS011;49286;44.460;26.114;2022-10-17T04:11:03;20.27;;;14.27;;
63189;SDS011;49286;44.460;26.114;2022-10-17T04:13:30;24.48;;;16.33;;
63189;SDS011;49286;44.460;26.114;2022-10-17T04:15:57;29.70;;;18.58;;
63189;SDS011;49286;44.460;26.114;2022-10-17T04:18:27;40.13;;;18.23;;
63189;SDS011;49286;44.460;26.114;2022-10-17T04:20:53;22.95;;;15.20;;
63189;SDS011;49286;44.460;26.114;2022-10-17T04:23:21;32.75;;;17.73;;
63189;SDS011;49286;44.460;26.114;2022-10-17T04:25:47;29.77;;;18.30;;
63189;SDS011;49286;44.460;26.114;2022-10-17T04:28:13;27.27;;;20.08;;
63189;SDS011;49286;44.460;26.114;2022-10-17T04:30:38;39.72;;;16.52;;
63189;SDS011;49286;44.460;26.114;2022-10-17T04:33:04;24.52;;;17.48;;
63189;SDS011;49286;44.460;26.114;2022-10-17T04:35:30;25.73;;;18.50;;
63189;SDS011;49286;44.460;26.114;2022-10-17T04:37:55;29.42;;;18.08;;
63189;SDS011;49286;44.460;26.114;2022-10-17T04:40:21;23.42;;;17.65;;
63189;SDS011;49286;44.460;26.114;2022-10-17T04:42:46;29.00;;;18.90;;
63189;SDS011;49286;44.460;26.114;2022-10-17T04:45:12;34.83;;;20.08;;
63189;SDS011;49286;44.460;26.114;2022-10-17T04:47:38;27.15;;;18.95;;
63189;SDS011;49286;44.460;26.114;2022-10-17T04:50:04;24.98;;;18.58;;
63189;SDS011;49286;44.460;26.114;2022-10-17T04:52:30;32.58;;;20.95;;
63189;SDS011;49286;44.460;26.114;2022-10-17T04:54:56;26.75;;;18.58;;
63189;SDS011;49286;44.460;26.114;2022-10-17T04:57:22;28.67;;;17.65;;
63189;SDS011;49286;44.460;26.114;2022-10-17T04:59:48;45.03;;;22.63;;
63189;SDS011;49286;44.460;26.114;2022-10-17T05:02:14;28.55;;;18.75;;
63189;SDS011;49286;44.460;26.114;2022-10-17T05:04:40;30.40;;;18.77;;
63189;SDS011;49286;44.460;26.114;2022-10-17T05:07:05;40.75;;;20.55;;
63189;SDS011;49286;44.460;26.114;2022-10-17T05:09:31;28.25;;;19.00;;
63189;SDS011;49286;44.460;26.114;2022-10-17T05:11:56;38.97;;;20.13;;
63189;SDS011;49286;44.460;26.114;2022-10-17T05:14:22;42.45;;;21.20;;
63189;SDS011;49286;44.460;26.114;2022-10-17T05:16:47;41.78;;;20.55;;
63189;SDS011;49286;44.460;26.114;2022-10-17T05:19:13;35.05;;;19.27;;
63189;SDS011;49286;44.460;26.114;2022-10-17T05:21:38;27.27;;;18.80;;
63189;SDS011;49286;44.460;26.114;2022-10-17T05:24:05;31.73;;;20.25;;
63189;SDS011;49286;44.460;26.114;2022-10-17T05:26:31;30.77;;;19.55;;
63189;SDS011;49286;44.460;26.114;2022-10-17T05:28:58;28.85;;;18.70;;
63189;SDS011;49286;44.460;26.114;2022-10-17T05:31:26;31.98;;;19.15;;
63189;SDS011;49286;44.460;26.114;2022-10-17T05:33:53;42.33;;;20.45;;
63189;SDS011;49286;44.460;26.114;2022-10-17T05:36:18;39.33;;;18.77;;
63189;SDS011;49286;44.460;26.114;2022-10-17T05:38:47;33.67;;;18.95;;
63189;SDS011;49286;44.460;26.114;2022-10-17T05:41:14;29.02;;;19.63;;
63189;SDS011;49286;44.460;26.114;2022-10-17T05:43:40;41.63;;;19.08;;
63189;SDS011;49286;44.460;26.114;2022-10-17T05:46:05;23.60;;;18.85;;
63189;SDS011;49286;44.460;26.114;2022-10-17T05:48:31;27.00;;;19.65;;
63189;SDS011;49286;44.460;26.114;2022-10-17T05:51:01;32.50;;;19.95;;
63189;SDS011;49286;44.460;26.114;2022-10-17T05:53:32;58.85;;;23.52;;
63189;SDS011;49286;44.460;26.114;2022-10-17T05:56:01;33.15;;;18.50;;
63189;SDS011;49286;44.460;26.114;2022-10-17T05:58:29;22.17;;;16.25;;
63189;SDS011;49286;44.460;26.114;2022-10-17T06:00:56;34.75;;;19.77;;
63189;SDS011;49286;44.460;26.114;2022-10-17T06:03:23;28.80;;;19.08;;
63189;SDS011;49286;44.460;26.114;2022-10-17T06:05:48;33.63;;;21.55;;
63189;SDS011;49286;44.460;26.114;2022-10-17T06:08:14;23.88;;;18.00;;
63189;SDS011;49286;44.460;26.114;2022-10-17T06:10:39;28.02;;;16.02;;
63189;SDS011;49286;44.460;26.114;2022-10-17T06:13:05;30.50;;;17.10;;
63189;SDS011;49286;44.460;26.114;2022-10-17T06:15:31;24.15;;;16.17;;
63189;SDS011;49286;44.460;26.114;2022-10-17T06:17:57;28.67;;;16.00;;
63189;SDS011;49286;44.460;26.114;2022-10-17T06:20:22;30.42;;;17.02;;
63189;SDS011;49286;44.460;26.114;2022-10-17T06:22:47;51.95;;;19.35;;
63189;SDS011;49286;44.460;26.114;2022-10-17T06:25:13;33.28;;;18.60;;
63189;SDS011;49286;44.460;26.114;2022-10-17T06:27:39;29.65;;;18.35;;
63189;SDS011;49286;44.460;26.114;2022-10-17T06:30:04;30.55;;;20.13;;
63189;SDS011;49286;44.460;26.114;2022-10-17T06:32:30;29.75;;;19.35;;
63189;SDS011;49286;44.460;26.114;2022-10-17T06:34:55;27.13;;;15.65;;
63189;SDS011;49286;44.460;26.114;2022-10-17T06:37:21;32.70;;;17.90;;
63189;SDS011;49286;44.460;26.114;2022-10-17T06:39:46;30.20;;;12.63;;
63189;SDS011;49286;44.460;26.114;2022-10-17T06:42:12;21.30;;;13.93;;
63189;SDS011;49286;44.460;26.114;2022-10-17T06:44:37;23.83;;;14.52;;
63189;SDS011;49286;44.460;26.114;2022-10-17T06:47:04;21.50;;;13.88;;
63189;SDS011;49286;44.460;26.114;2022-10-17T06:49:29;23.48;;;14.07;;
63189;SDS011;49286;44.460;26.114;2022-10-17T06:51:56;22.85;;;13.75;;
63189;SDS011;49286;44.460;26.114;2022-10-17T06:54:21;18.83;;;12.57;;
63189;SDS011;49286;44.460;26.114;2022-10-17T06:56:53;17.40;;;12.18;;
63189;SDS011;49286;44.460;26.114;2022-10-17T06:59:20;27.20;;;11.93;;
63189;SDS011;49286;44.460;26.114;2022-10-17T07:01:46;17.33;;;12.45;;
63189;SDS011;49286;44.460;26.114;2022-10-17T07:04:11;34.38;;;13.68;;
63189;SDS011;49286;44.460;26.114;2022-10-17T07:06:37;26.45;;;12.85;;
63189;SDS011;49286;44.460;26.114;2022-10-17T07:09:03;33.70;;;13.55;;
63189;SDS011;49286;44.460;26.114;2022-10-17T07:11:30;23.20;;;13.00;;
63189;SDS011;49286;44.460;26.114;2022-10-17T07:13:57;21.75;;;13.20;;
63189;SDS011;49286;44.460;26.114;2022-10-17T07:16:22;30.20;;;13.57;;
63189;SDS011;49286;44.460;26.114;2022-10-17T07:18:49;26.58;;;12.73;;
63189;SDS011;49286;44.460;26.114;2022-10-17T07:21:15;29.00;;;11.63;;
63189;SDS011;49286;44.460;26.114;2022-10-17T07:23:40;23.95;;;13.98;;
63189;SDS011;49286;44.460;26.114;2022-10-17T07:26:08;17.17;;;10.25;;
63189;SDS011;49286;44.460;26.114;2022-10-17T07:28:36;17.98;;;12.10;;
63189;SDS011;49286;44.460;26.114;2022-10-17T07:31:04;16.17;;;10.80;;
63189;SDS011;49286;44.460;26.114;2022-10-17T07:33:31;20.33;;;10.80;;
63189;SDS011;49286;44.460;26.114;2022-10-17T07:35:57;39.42;;;11.00;;
63189;SDS011;49286;44.460;26.114;2022-10-17T07:38:24;16.92;;;11.27;;
63189;SDS011;49286;44.460;26.114;2022-10-17T07:40:56;25.20;;;11.02;;
63189;SDS011;49286;44.460;26.114;2022-10-17T07:43:23;14.85;;;10.55;;
63189;SDS011;49286;44.460;26.114;2022-10-17T07:45:49;20.27;;;9.95;;
63189;SDS011;49286;44.460;26.114;2022-10-17T07:48:16;16.23;;;9.20;;
63189;SDS011;49286;44.460;26.114;2022-10-17T07:50:41;22.33;;;8.65;;
63189;SDS011;49286;44.460;26.114;2022-10-17T07:53:07;22.33;;;11.38;;
63189;SDS011;49286;44.460;26.114;2022-10-17T07:55:32;17.58;;;8.40;;
63189;SDS011;49286;44.460;26.114;2022-10-17T07:57:58;15.60;;;9.38;;
63189;SDS011;49286;44.460;26.114;2022-10-17T08:00:26;21.30;;;9.55;;
63189;SDS011;49286;44.460;26.114;2022-10-17T08:02:52;33.60;;;10.63;;
63189;SDS011;49286;44.460;26.114;2022-10-17T08:05:17;11.05;;;7.18;;
63189;SDS011;49286;44.460;26.114;2022-10-17T08:07:43;12.52;;;7.55;;
63189;SDS011;49286;44.460;26.114;2022-10-17T08:10:10;14.95;;;8.45;;
63189;SDS011;49286;44.460;26.114;2022-10-17T08:12:36;13.88;;;8.85;;
63189;SDS011;49286;44.460;26.114;2022-10-17T08:15:03;23.02;;;10.35;;
63189;SDS011;49286;44.460;26.114;2022-10-17T08:17:29;15.70;;;9.02;;
63189;SDS011;49286;44.460;26.114;2022-10-17T08:19:55;20.90;;;9.63;;
63189;SDS011;49286;44.460;26.114;2022-10-17T08:22:21;21.35;;;8.52;;
63189;SDS011;49286;44.460;26.114;2022-10-17T08:24:46;22.23;;;9.93;;
63189;SDS011;49286;44.460;26.114;2022-10-17T08:27:12;17.55;;;8.23;;
63189;SDS011;49286;44.460;26.114;2022-10-17T08:29:38;13.02;;;7.88;;
63189;SDS011;49286;44.460;26.114;2022-10-17T08:32:04;22.17;;;8.50;;
63189;SDS011;49286;44.460;26.114;2022-10-17T08:34:31;17.10;;;9.25;;
63189;SDS011;49286;44.460;26.114;2022-10-17T08:36:57;21.65;;;8.45;;
63189;SDS011;49286;44.460;26.114;2022-10-17T08:39:22;13.32;;;8.20;;
63189;SDS011;49286;44.460;26.114;2022-10-17T08:47:45;13.75;;;7.00;;
63189;SDS011;49286;44.460;26.114;2022-10-17T08:52:48;13.48;;;6.47;;
63189;SDS011;49286;44.460;26.114;2022-10-17T08:55:38;15.07;;;7.40;;
63189;SDS011;49286;44.460;26.114;2022-10-17T09:00:38;15.38;;;6.07;;
63189;SDS011;49286;44.460;26.114;2022-10-17T09:03:20;7.25;;;5.30;;
63189;SDS011;49286;44.460;26.114;2022-10-17T09:12:01;12.68;;;6.00;;
63189;SDS011;49286;44.460;26.114;2022-10-17T09:14:49;9.38;;;5.43;;
63189;SDS011;49286;44.460;26.114;2022-10-17T09:20:37;10.27;;;5.65;;
63189;SDS011;49286;44.460;26.114;2022-10-17T09:23:01;11.98;;;6.30;;
63189;SDS011;49286;44.460;26.114;2022-10-17T09:25:41;12.57;;;6.75;;
63189;SDS011;49286;44.460;26.114;2022-10-17T09:28:32;12.18;;;6.82;;
63189;SDS011;49286;44.460;26.114;2022-10-17T09:31:11;11.40;;;6.20;;
63189;SDS011;49286;44.460;26.114;2022-10-17T09:33:43;11.57;;;6.32;;
63189;SDS011;49286;44.460;26.114;2022-10-17T09:36:15;13.63;;;6.88;;
63189;SDS011;49286;44.460;26.114;2022-10-17T09:41:34;21.33;;;7.28;;
63189;SDS011;49286;44.460;26.114;2022-10-17T09:44:34;26.75;;;7.95;;
63189;SDS011;49286;44.460;26.114;2022-10-17T09:49:59;14.13;;;7.63;;
63189;SDS011;49286;44.460;26.114;2022-10-17T09:52:32;17.23;;;7.63;;
63189;SDS011;49286;44.460;26.114;2022-10-17T09:55:10;16.40;;;9.10;;
63189;SDS011;49286;44.460;26.114;2022-10-17T10:00:22;12.50;;;6.22;;
63189;SDS011;49286;44.460;26.114;2022-10-17T10:03:09;17.15;;;5.63;;
63189;SDS011;49286;44.460;26.114;2022-10-17T10:08:28;10.65;;;4.82;;
63189;SDS011;49286;44.460;26.114;2022-10-17T10:10:59;14.77;;;4.97;;
63189;SDS011;49286;44.460;26.114;2022-10-17T10:13:29;12.93;;;7.38;;
63189;SDS011;49286;44.460;26.114;2022-10-17T10:16:12;9.45;;;5.30;;
63189;SDS011;49286;44.460;26.114;2022-10-17T10:18:53;6.10;;;4.13;;
63189;SDS011;49286;44.460;26.114;2022-10-17T10:21:23;11.88;;;4.53;;
63189;SDS011;49286;44.460;26.114;2022-10-17T10:26:52;17.35;;;6.07;;
63189;SDS011;49286;44.460;26.114;2022-10-17T10:29:25;11.05;;;5.25;;
63189;SDS011;49286;44.460;26.114;2022-10-17T10:31:54;10.85;;;6.43;;
63189;SDS011;49286;44.460;26.114;2022-10-17T10:34:30;12.52;;;6.65;;
63189;SDS011;49286;44.460;26.114;2022-10-17T10:39:41;10.70;;;6.40;;
63189;SDS011;49286;44.460;26.114;2022-10-17T10:42:27;12.30;;;5.50;;
63189;SDS011;49286;44.460;26.114;2022-10-17T10:45:02;9.88;;;5.45;;
63189;SDS011;49286;44.460;26.114;2022-10-17T10:47:39;15.50;;;5.80;;
63189;SDS011;49286;44.460;26.114;2022-10-17T10:50:28;16.73;;;6.15;;
63189;SDS011;49286;44.460;26.114;2022-10-17T10:56:24;10.65;;;6.25;;
63189;SDS011;49286;44.460;26.114;2022-10-17T11:07:38;16.45;;;9.93;;
63189;SDS011;49286;44.460;26.114;2022-10-17T11:15:33;9.20;;;5.10;;
63189;SDS011;49286;44.460;26.114;2022-10-17T11:18:10;21.70;;;5.50;;
63189;SDS011;49286;44.460;26.114;2022-10-17T11:26:25;18.70;;;6.28;;
63189;SDS011;49286;44.460;26.114;2022-10-17T11:28:55;8.07;;;5.57;;
63189;SDS011;49286;44.460;26.114;2022-10-17T11:31:29;9.93;;;5.03;;
63189;SDS011;49286;44.460;26.114;2022-10-17T11:36:35;9.48;;;5.85;;
63189;SDS011;49286;44.460;26.114;2022-10-17T11:39:26;14.57;;;6.13;;
63189;SDS011;49286;44.460;26.114;2022-10-17T11:42:11;11.30;;;5.05;;
63189;SDS011;49286;44.460;26.114;2022-10-17T11:44:53;10.50;;;6.18;;
63189;SDS011;49286;44.460;26.114;2022-10-17T11:53:01;20.60;;;5.82;;
63189;SDS011;49286;44.460;26.114;2022-10-17T11:55:32;10.10;;;5.85;;
63189;SDS011;49286;44.460;26.114;2022-10-17T12:05:49;21.20;;;6.53;;
63189;SDS011;49286;44.460;26.114;2022-10-17T12:08:26;13.73;;;5.70;;
63189;SDS011;49286;44.460;26.114;2022-10-17T12:18:47;10.98;;;5.72;;
63189;SDS011;49286;44.460;26.114;2022-10-17T12:21:17;14.07;;;5.80;;
63189;SDS011;49286;44.460;26.114;2022-10-17T12:23:50;7.72;;;5.22;;
63189;SDS011;49286;44.460;26.114;2022-10-17T12:26:27;9.43;;;5.53;;
63189;SDS011;49286;44.460;26.114;2022-10-17T12:28:55;10.18;;;5.32;;
63189;SDS011;49286;44.460;26.114;2022-10-17T12:31:22;15.70;;;4.97;;
63189;SDS011;49286;44.460;26.114;2022-10-17T12:33:59;12.05;;;5.85;;
63189;SDS011;49286;44.460;26.114;2022-10-17T12:42:20;13.50;;;6.03;;
63189;SDS011;49286;44.460;26.114;2022-10-17T12:57:38;9.50;;;6.20;;
63189;SDS011;49286;44.460;26.114;2022-10-17T13:00:18;23.88;;;5.90;;
63189;SDS011;49286;44.460;26.114;2022-10-17T13:02:48;15.30;;;6.32;;
63189;SDS011;49286;44.460;26.114;2022-10-17T13:05:27;13.98;;;5.28;;
63189;SDS011;49286;44.460;26.114;2022-10-17T13:07:55;15.45;;;5.72;;
63189;SDS011;49286;44.460;26.114;2022-10-17T13:10:26;12.93;;;7.18;;
63189;SDS011;49286;44.460;26.114;2022-10-17T13:12:57;14.07;;;6.65;;
63189;SDS011;49286;44.460;26.114;2022-10-17T13:15:28;14.00;;;6.15;;
63189;SDS011;49286;44.460;26.114;2022-10-17T13:17:56;7.47;;;5.65;;
63189;SDS011;49286;44.460;26.114;2022-10-17T13:20:26;10.30;;;5.55;;
63189;SDS011;49286;44.460;26.114;2022-10-17T13:22:53;7.78;;;4.68;;
63189;SDS011;49286;44.460;26.114;2022-10-17T13:25:21;8.88;;;5.25;;
63189;SDS011;49286;44.460;26.114;2022-10-17T13:27:48;9.85;;;4.85;;
63189;SDS011;49286;44.460;26.114;2022-10-17T13:30:28;20.10;;;5.60;;
63189;SDS011;49286;44.460;26.114;2022-10-17T13:33:00;13.98;;;5.47;;
63189;SDS011;49286;44.460;26.114;2022-10-17T13:35:30;12.23;;;5.32;;
63189;SDS011;49286;44.460;26.114;2022-10-17T13:38:00;23.65;;;5.72;;
63189;SDS011;49286;44.460;26.114;2022-10-17T13:40:29;9.18;;;5.90;;
63189;SDS011;49286;44.460;26.114;2022-10-17T13:42:56;21.88;;;7.10;;
63189;SDS011;49286;44.460;26.114;2022-10-17T13:48:03;13.10;;;5.50;;
63189;SDS011;49286;44.460;26.114;2022-10-17T13:55:31;9.75;;;5.10;;
63189;SDS011;49286;44.460;26.114;2022-10-17T13:58:07;13.30;;;4.97;;
63189;SDS011;49286;44.460;26.114;2022-10-17T14:00:40;10.88;;;5.63;;
63189;SDS011;49286;44.460;26.114;2022-10-17T14:03:06;11.73;;;5.18;;
63189;SDS011;49286;44.460;26.114;2022-10-17T14:05:32;15.80;;;7.38;;
63189;SDS011;49286;44.460;26.114;2022-10-17T14:07:58;10.27;;;5.20;;
63189;SDS011;49286;44.460;26.114;2022-10-17T14:10:30;14.10;;;6.00;;
63189;SDS011;49286;44.460;26.114;2022-10-17T14:12:59;10.57;;;6.20;;
63189;SDS011;49286;44.460;26.114;2022-10-17T14:15:28;10.68;;;5.13;;
63189;SDS011;49286;44.460;26.114;2022-10-17T14:18:00;12.05;;;5.72;;
63189;SDS011;49286;44.460;26.114;2022-10-17T14:20:27;10.30;;;5.13;;
63189;SDS011;49286;44.460;26.114;2022-10-17T14:22:54;13.55;;;5.15;;
63189;SDS011;49286;44.460;26.114;2022-10-17T14:25:34;13.07;;;7.82;;
63189;SDS011;49286;44.460;26.114;2022-10-17T14:28:12;18.80;;;8.73;;
63189;SDS011;49286;44.460;26.114;2022-10-17T14:30:46;17.50;;;8.73;;
63189;SDS011;49286;44.460;26.114;2022-10-17T14:33:21;21.08;;;8.13;;
63189;SDS011;49286;44.460;26.114;2022-10-17T14:35:51;18.90;;;6.82;;
63189;SDS011;49286;44.460;26.114;2022-10-17T14:38:18;12.90;;;6.20;;
63189;SDS011;49286;44.460;26.114;2022-10-17T14:40:48;11.38;;;6.30;;
63189;SDS011;49286;44.460;26.114;2022-10-17T14:43:27;11.50;;;6.82;;
63189;SDS011;49286;44.460;26.114;2022-10-17T14:46:00;20.15;;;7.85;;
63189;SDS011;49286;44.460;26.114;2022-10-17T14:48:27;17.38;;;6.10;;
63189;SDS011;49286;44.460;26.114;2022-10-17T14:53:41;24.05;;;7.45;;
63189;SDS011;49286;44.460;26.114;2022-10-17T14:56:22;21.25;;;8.25;;
63189;SDS011;49286;44.460;26.114;2022-10-17T14:58:55;12.20;;;6.40;;
63189;SDS011;49286;44.460;26.114;2022-10-17T15:01:20;22.70;;;7.22;;
63189;SDS011;49286;44.460;26.114;2022-10-17T15:03:46;21.65;;;7.55;;
63189;SDS011;49286;44.460;26.114;2022-10-17T15:06:22;30.48;;;6.43;;
63189;SDS011;49286;44.460;26.114;2022-10-17T15:08:51;15.07;;;6.47;;
63189;SDS011;49286;44.460;26.114;2022-10-17T15:11:17;29.27;;;8.45;;
63189;SDS011;49286;44.460;26.114;2022-10-17T15:13:42;19.20;;;7.80;;
63189;SDS011;49286;44.460;26.114;2022-10-17T15:16:14;16.50;;;6.80;;
63189;SDS011;49286;44.460;26.114;2022-10-17T15:18:43;24.13;;;9.52;;
63189;SDS011;49286;44.460;26.114;2022-10-17T15:21:12;16.17;;;8.13;;
63189;SDS011;49286;44.460;26.114;2022-10-17T15:23:39;16.00;;;6.90;;
63189;SDS011;49286;44.460;26.114;2022-10-17T15:26:39;24.65;;;9.93;;
63189;SDS011;49286;44.460;26.114;2022-10-17T15:28:58;20.20;;;8.13;;
63189;SDS011;49286;44.460;26.114;2022-10-17T15:31:24;22.35;;;8.43;;
63189;SDS011;49286;44.460;26.114;2022-10-17T15:33:51;17.50;;;9.85;;
63189;SDS011;49286;44.460;26.114;2022-10-17T15:36:31;18.05;;;9.80;;
63189;SDS011;49286;44.460;26.114;2022-10-17T15:39:02;25.05;;;11.85;;
63189;SDS011;49286;44.460;26.114;2022-10-17T15:41:35;26.13;;;13.63;;
63189;SDS011;49286;44.460;26.114;2022-10-17T15:44:00;31.00;;;14.82;;
63189;SDS011;49286;44.460;26.114;2022-10-17T15:46:33;34.58;;;15.65;;
63189;SDS011;49286;44.460;26.114;2022-10-17T15:49:08;22.35;;;15.40;;
63189;SDS011;49286;44.460;26.114;2022-10-17T15:51:35;34.38;;;14.20;;
63189;SDS011;49286;44.460;26.114;2022-10-17T15:54:01;34.67;;;13.80;;
63189;SDS011;49286;44.460;26.114;2022-10-17T15:56:27;34.70;;;13.80;;
63189;SDS011;49286;44.460;26.114;2022-10-17T15:58:56;38.78;;;12.77;;
63189;SDS011;49286;44.460;26.114;2022-10-17T16:01:23;41.13;;;13.85;;
63189;SDS011;49286;44.460;26.114;2022-10-17T16:03:53;52.65;;;14.45;;
63189;SDS011;49286;44.460;26.114;2022-10-17T16:06:19;34.33;;;14.20;;
63189;SDS011;49286;44.460;26.114;2022-10-17T16:08:46;36.60;;;15.10;;
63189;SDS011;49286;44.460;26.114;2022-10-17T16:11:16;37.55;;;15.65;;
63189;SDS011;49286;44.460;26.114;2022-10-17T16:13:50;36.42;;;16.58;;
63189;SDS011;49286;44.460;26.114;2022-10-17T16:16:18;28.48;;;16.50;;
63189;SDS011;49286;44.460;26.114;2022-10-17T16:18:44;40.55;;;16.00;;
63189;SDS011;49286;44.460;26.114;2022-10-17T16:21:11;37.42;;;14.82;;
63189;SDS011;49286;44.460;26.114;2022-10-17T16:23:38;43.28;;;15.95;;
63189;SDS011;49286;44.460;26.114;2022-10-17T16:26:04;35.60;;;16.42;;
63189;SDS011;49286;44.460;26.114;2022-10-17T16:28:31;36.75;;;18.63;;
63189;SDS011;49286;44.460;26.114;2022-10-17T16:30:57;44.42;;;18.42;;
63189;SDS011;49286;44.460;26.114;2022-10-17T16:33:26;48.95;;;18.75;;
63189;SDS011;49286;44.460;26.114;2022-10-17T16:35:52;31.17;;;14.73;;
63189;SDS011;49286;44.460;26.114;2022-10-17T16:38:19;37.90;;;16.95;;
63189;SDS011;49286;44.460;26.114;2022-10-17T16:40:44;30.33;;;15.05;;
63189;SDS011;49286;44.460;26.114;2022-10-17T16:43:13;34.08;;;15.98;;
63189;SDS011;49286;44.460;26.114;2022-10-17T16:45:38;44.15;;;19.20;;
63189;SDS011;49286;44.460;26.114;2022-10-17T16:48:04;32.15;;;16.98;;
63189;SDS011;49286;44.460;26.114;2022-10-17T16:50:30;43.95;;;15.10;;
63189;SDS011;49286;44.460;26.114;2022-10-17T16:52:59;50.00;;;14.68;;
63189;SDS011;49286;44.460;26.114;2022-10-17T16:55:25;33.75;;;14.75;;
63189;SDS011;49286;44.460;26.114;2022-10-17T16:57:50;33.45;;;14.85;;
63189;SDS011;49286;44.460;26.114;2022-10-17T17:00:16;35.17;;;14.65;;
63189;SDS011;49286;44.460;26.114;2022-10-17T17:02:42;50.05;;;16.42;;
63189;SDS011;49286;44.460;26.114;2022-10-17T17:05:08;46.08;;;15.07;;